Bryn Athyn, PA (19009)

5:38 PM EST on December 21, 2014 (GMT -0500)
Bryn Athyn | Change Station
CLOSE
Current Station
Personal Weather Station
Location: Huntingdon Valley, PA
Elevation: 280 ft
Nearby Weather Stations

Elev 280 ft 40.13 °N, 75.06 °W | Updated 0 second ago

Clear
Clear
31.0 °F
Feels Like 31 °F
N
0.0
Wind Variable Wind from NNW
Gusts 3.0 mph

Today
High -- | Low -- °F
--% Chance of Precip.
Yesterday
High -- | Low -- °F
Precip. -- in
7:18 AM 4:37 PM
Waning Crescent, 0% visible
Pressure 30.33 in
Visibility 10.0 miles
Clouds Clear
Windchill 31 °F
Dew Point 24 °F
Humidity 75%
Rainfall 0.00 in
Snow Depth Not available.
UV 0.0 out of 12
Pollen .10 out of 12
Air Quality Not available.
Flu Activity Not available.
METAR KPNE 212154Z AUTO 03005KT 10SM CLR 02/M06 A3032 RMK AO2 SLP269 T00171061 TSNO

More Conditions Fewer Conditions

Pressure 30.33 in
Visibility 10.0 miles
Clouds Clear
Windchill 31 °F
Dew Point 24 °F
Humidity 75%
Rainfall 0.00 in
Snow Depth Not available.
UV 0.0 out of 12
Pollen .10 out of 12
Air Quality Not available.
Flu Activity Not available.
METAR KPNE 212154Z AUTO 03005KT 10SM CLR 02/M06 A3032 RMK AO2 SLP269 T00171061 TSNO

More Conditions Fewer Conditions

10-Day Weather Forecast

Almanac

Astronomy

Dec. 21, 2014 Rise Set
Actual Time
Civil Twilight
Nautical Twilight
Astronomical Twilight
Moon
Length of Visible Light
Length of Day
Tomorrow will be .
, % of the Moon is Illuminated

Today's Extremes

State Highs State Lows

Community

WunderPhotos

Upload Photos

1,779,499 photos uploaded!

WunderBlogs® & News

Nearby

Air Quality

  Air Quality AQ Index Pollutant
Not available.

Snow Depth

Station Depth Elevation

Earthquake Activity

City Distance Mag. Time & Date
Minimum magnitude displayed is 2.5.

Coastal Water Temperatures

Place Temperature

Nearby Weather Stations